Flight Track Log - Related Links

Times and Time Zones

All times are in EDT time to prevent confusion due to time zone crossing. See the TUS8476 flight status page for this flight to view local times or setup timezone preferences in your user account.

Time Position Orientation Groundspeed Altitude Reporting Facility
EDT Latitude Longitude Course Direction KTS MPH feet Rate Location/Type
Sun 08:23:00 AM 25.7954 -80.2901 345° North  Level Estimated
Sun 08:24:00 AM 25.7954 -80.2901 318° Northwest  Level Estimated
Sun 08:25:00 AM 25.7954 -80.2901 318° Northwest  Level Estimated
Sun 08:25:45 AM 23.2581 -78.8806 318° Northwest 467 537 34,000  Level Miami Center
Sun 08:26:00 AM 25.7954 -80.2901 318° Northwest  Level Estimated
Sun 08:26:45 AM 23.3725 -78.9117 346° North 452 520 34,000  Level Miami Center
Sun 08:27:00 AM 25.7954 -80.2901 318° Northwest  Level Estimated
Sun 08:27:45 AM 23.4892 -78.9408 347° North 431 496 34,000  Level Miami Center
Sun 08:28:00 AM 25.7954 -80.2901 318° Northwest  Level Estimated
Sun 08:28:45 AM 23.6078 -78.9700 347° North 430 495 34,000  Level Miami Center
Sun 08:29:00 AM 25.7954 -80.2901 318° Northwest  Level Estimated
Sun 08:29:45 AM 23.7222 -78.9969 348° North 436 502 34,000  Level Miami Center
Sun 08:30:00 AM 25.7954 -80.2901 318° Northwest  Level Estimated
Sun 08:30:45 AM 23.8181 -79.0233 346° North 431 496 34,000  Level Miami Center
Sun 08:31:00 AM 25.7954 -80.2901 318° Northwest  Level Estimated
Sun 08:31:45 AM 23.9492 -79.0575 347° North 424 488 34,000  Level Miami Center
Sun 08:32:45 AM 24.0700 -79.0892 347° North 433 498 34,000  Level Miami Center
Sun 08:33:45 AM 24.1758 -79.1389 337° Northwest 423 487 34,000 -500 Level Miami Center
Sun 08:34:45 AM 24.2878 -79.1956 335° Northwest 429 494 33,000 -1,600 Descending Miami Center
Sun 08:35:45 AM 24.4081 -79.2481 338° Northwest 423 487 30,800 -2,150 Descending Miami Center
Sun 08:36:45 AM 24.5136 -79.3025 335° Northwest 417 480 28,700 -2,000 Descending Miami Center
Sun 08:37:45 AM 24.6175 -79.3528 336° Northwest 412 474 26,800 -1,900 Descending Miami Center
Sun 08:38:45 AM 24.7169 -79.4028 335° Northwest 399 459 24,900 -1,850 Descending Miami Center
Sun 08:39:45 AM 24.8164 -79.4506 336° Northwest 393 452 23,100 -1,850 Descending Miami Center
Sun 08:40:45 AM 24.9136 -79.4961 337° Northwest 388 447 21,200 -2,100 Descending Miami Center
Sun 08:41:45 AM 25.0111 -79.5439 336° Northwest 383 441 18,900 -2,050 Descending Miami Center
Sun 08:42:45 AM 25.1106 -79.5922 336° Northwest 383 441 17,100 -1,850 Descending Miami Center
Sun 08:43:45 AM 25.2058 -79.6378 337° Northwest 378 435 15,200 -1,850 Descending Miami Center
Sun 08:44:45 AM 25.2967 -79.6814 337° Northwest 367 422 13,400 -1,761 Descending Miami Center
Sun 08:45:17 AM 25.3444 -79.7100 332° Northwest 354 407 12,500 -1,400 Descending Miami Center
Sun 08:45:45 AM 25.3836 -79.7247 341° North 357 411 12,000 -612 Descending Miami Center
Sun 08:46:06 AM 25.4019 -79.7528 306° West 317 365 12,000  Level Miami Center
Sun 08:46:45 AM 25.4428 -79.7975 315° West 319 367 12,000  Level Miami Center
Sun 08:47:06 AM 25.4547 -79.8322 291° West 313 360 12,000 -100 Level Miami Center
Sun 08:47:45 AM 25.4914 -79.8769 312° West 314 361 11,900  Descending Miami Center
Sun 08:48:07 AM 25.5056 -79.9047 299° West 293 337 12,000 100 Climbing Miami Center
Sun 08:48:45 AM 25.5381 -79.9472 310° West 302 348 12,000  Level Miami Center
Sun 08:49:08 AM 25.5542 -79.9775 301° West 278 320 12,000  Level Miami Center
Sun 08:49:45 AM 25.5825 -80.0150 310° West 289 333 12,000  Level Miami Center
Sun 08:50:15 AM 25.6047 -80.0569 300° West 279 321 12,000 -300 Level Miami Center
Sun 08:50:45 AM 25.6250 -80.0806 314° West 289 333 11,700 -1,377 Descending Miami Center
Sun 08:51:16 AM 25.6492 -80.1228 302° West 277 319 10,600 -1,600 Descending Miami Center
Sun 08:51:45 AM 25.6653 -80.1508 303° West 284 327 10,100 -643 Descending Miami Center
Sun 08:52:12 AM 25.6725 -80.1972 280° West 265 305 10,000 -100 Descending Miami Center
Sun 08:52:45 AM 25.6864 -80.2275 297° West 271 312 10,000  Level Miami Center
Sun 08:53:12 AM 25.6939 -80.2714 281° West 246 283 10,000 -800 Level Miami Center
Sun 08:53:45 AM 25.7056 -80.2994 295° West 257 296 9,200 -2,060 Descending Miami Center
Sun 08:54:19 AM 25.7042 -80.3572 268° West 259 298 7,700 -2,200 Descending Miami Center
Sun 08:54:45 AM 25.7058 -80.3778 275° West 245 282 7,000 -1,967 Descending Miami Center
Sun 08:55:20 AM 25.6983 -80.4353 262° West 247 284 5,700 -2,133 Descending Miami Center
Sun 08:56:15 AM 25.6944 -80.5044 266° West 247 284 3,800 -1,328 Descending Miami Center
Sun 08:57:22 AM 25.7331 -80.5469 315° West 194 223 3,000 -390 Descending Miami Center
Sun 08:58:18 AM 25.7714 -80.5158 36° Northeast 198 228 3,000 -344 Level Miami Center
Sun 08:59:24 AM 25.7772 -80.4492 84° East 195 224 2,300 -756 Descending Miami Center
Sun 09:00:25 AM 25.7828 -80.3939 84° East 170 196 1,400 -836 Descending Miami Center
Sun 09:01:26 AM 25.7819 -80.3456 91° East 159 183 600 -787 Descending Miami Center
Sun 09:03:00 AM 25.7833 -80.2833 90° East  Level FlightAware Approximate

Login

Don't have an account? Register now (free) for customized features, flight alerts, and more!